sensor_id;sensor_type;location;lat;lon;timestamp;temperature;humidity
37324;DHT22;23205;49.986;18.950;2022-08-21T00:02:30;19.70;99.90
37324;DHT22;23205;49.986;18.950;2022-08-21T00:07:31;19.70;99.90
37324;DHT22;23205;49.986;18.950;2022-08-21T00:12:33;19.70;99.90
37324;DHT22;23205;49.986;18.950;2022-08-21T00:17:35;19.80;99.90
37324;DHT22;23205;49.986;18.950;2022-08-21T00:22:37;19.90;99.90
37324;DHT22;23205;49.986;18.950;2022-08-21T00:27:38;19.90;99.90
37324;DHT22;23205;49.986;18.950;2022-08-21T00:32:39;20.00;99.90
37324;DHT22;23205;49.986;18.950;2022-08-21T00:37:41;20.10;99.90
37324;DHT22;23205;49.986;18.950;2022-08-21T00:42:42;20.00;99.90
37324;DHT22;23205;49.986;18.950;2022-08-21T00:47:44;20.10;99.90
37324;DHT22;23205;49.986;18.950;2022-08-21T00:52:46;20.10;99.90
37324;DHT22;23205;49.986;18.950;2022-08-21T00:57:49;20.10;99.90
37324;DHT22;23205;49.986;18.950;2022-08-21T01:02:50;19.90;99.90
37324;DHT22;23205;49.986;18.950;2022-08-21T01:07:51;19.80;99.90
37324;DHT22;23205;49.986;18.950;2022-08-21T01:12:55;19.90;99.90
37324;DHT22;23205;49.986;18.950;2022-08-21T01:17:56;19.80;99.90
37324;DHT22;23205;49.986;18.950;2022-08-21T01:22:56;19.70;99.90
37324;DHT22;23205;49.986;18.950;2022-08-21T01:28:01;19.70;99.90
37324;DHT22;23205;49.986;18.950;2022-08-21T01:33:03;19.80;99.90
37324;DHT22;23205;49.986;18.950;2022-08-21T01:38:04;19.90;99.90
37324;DHT22;23205;49.986;18.950;2022-08-21T01:43:05;19.90;99.90
37324;DHT22;23205;49.986;18.950;2022-08-21T01:48:06;20.00;99.90
37324;DHT22;23205;49.986;18.950;2022-08-21T01:53:07;19.80;99.90
37324;DHT22;23205;49.986;18.950;2022-08-21T01:58:08;19.80;99.90
37324;DHT22;23205;49.986;18.950;2022-08-21T02:03:08;19.70;99.90
37324;DHT22;23205;49.986;18.950;2022-08-21T02:08:09;19.80;99.90
37324;DHT22;23205;49.986;18.950;2022-08-21T02:13:10;19.90;99.90
37324;DHT22;23205;49.986;18.950;2022-08-21T02:18:11;19.90;99.90
37324;DHT22;23205;49.986;18.950;2022-08-21T02:23:13;19.90;99.90
37324;DHT22;23205;49.986;18.950;2022-08-21T02:28:15;19.80;99.90
37324;DHT22;23205;49.986;18.950;2022-08-21T02:33:16;19.80;99.90
37324;DHT22;23205;49.986;18.950;2022-08-21T02:38:22;19.70;99.90
37324;DHT22;23205;49.986;18.950;2022-08-21T02:43:25;19.80;99.90
37324;DHT22;23205;49.986;18.950;2022-08-21T02:48:29;19.90;99.90
37324;DHT22;23205;49.986;18.950;2022-08-21T02:53:30;20.00;99.90
37324;DHT22;23205;49.986;18.950;2022-08-21T02:58:38;20.00;99.90
37324;DHT22;23205;49.986;18.950;2022-08-21T03:03:42;19.90;99.90
37324;DHT22;23205;49.986;18.950;2022-08-21T03:08:44;19.70;99.90
37324;DHT22;23205;49.986;18.950;2022-08-21T03:13:45;19.70;99.90
37324;DHT22;23205;49.986;18.950;2022-08-21T03:18:46;19.70;99.90
37324;DHT22;23205;49.986;18.950;2022-08-21T03:23:47;19.70;99.90
37324;DHT22;23205;49.986;18.950;2022-08-21T03:28:48;19.60;99.90
37324;DHT22;23205;49.986;18.950;2022-08-21T03:33:49;19.60;99.90
37324;DHT22;23205;49.986;18.950;2022-08-21T03:38:50;19.60;99.90
37324;DHT22;23205;49.986;18.950;2022-08-21T03:43:51;19.60;99.90
37324;DHT22;23205;49.986;18.950;2022-08-21T03:48:52;19.60;99.90
37324;DHT22;23205;49.986;18.950;2022-08-21T03:53:53;19.50;99.90
37324;DHT22;23205;49.986;18.950;2022-08-21T03:58:55;19.60;99.90
37324;DHT22;23205;49.986;18.950;2022-08-21T04:03:56;19.50;99.90
37324;DHT22;23205;49.986;18.950;2022-08-21T04:08:57;19.60;99.90
37324;DHT22;23205;49.986;18.950;2022-08-21T04:13:57;19.60;99.90
37324;DHT22;23205;49.986;18.950;2022-08-21T04:18:58;19.60;99.90
37324;DHT22;23205;49.986;18.950;2022-08-21T04:23:59;19.60;99.90
37324;DHT22;23205;49.986;18.950;2022-08-21T04:29:00;19.60;99.90
37324;DHT22;23205;49.986;18.950;2022-08-21T04:34:03;19.70;99.90
37324;DHT22;23205;49.986;18.950;2022-08-21T04:39:05;19.80;99.90
37324;DHT22;23205;49.986;18.950;2022-08-21T04:44:06;19.90;99.90
37324;DHT22;23205;49.986;18.950;2022-08-21T04:49:07;19.90;99.90
37324;DHT22;23205;49.986;18.950;2022-08-21T04:54:09;19.90;99.90
37324;DHT22;23205;49.986;18.950;2022-08-21T04:59:17;20.00;99.90
37324;DHT22;23205;49.986;18.950;2022-08-21T05:04:22;20.00;99.90
37324;DHT22;23205;49.986;18.950;2022-08-21T05:09:24;19.70;99.90
37324;DHT22;23205;49.986;18.950;2022-08-21T05:14:25;19.80;99.90
37324;DHT22;23205;49.986;18.950;2022-08-21T05:19:27;19.70;99.90
37324;DHT22;23205;49.986;18.950;2022-08-21T05:24:28;19.70;99.90
37324;DHT22;23205;49.986;18.950;2022-08-21T05:29:29;19.80;99.90
37324;DHT22;23205;49.986;18.950;2022-08-21T05:34:30;19.70;99.90
37324;DHT22;23205;49.986;18.950;2022-08-21T05:39:31;19.70;99.90
37324;DHT22;23205;49.986;18.950;2022-08-21T05:44:32;19.60;99.90
37324;DHT22;23205;49.986;18.950;2022-08-21T05:49:33;19.70;99.90
37324;DHT22;23205;49.986;18.950;2022-08-21T05:54:36;19.80;99.90
37324;DHT22;23205;49.986;18.950;2022-08-21T05:59:37;19.90;99.90
37324;DHT22;23205;49.986;18.950;2022-08-21T06:04:39;20.00;99.90
37324;DHT22;23205;49.986;18.950;2022-08-21T06:09:40;20.10;99.90
37324;DHT22;23205;49.986;18.950;2022-08-21T06:14:44;20.10;99.90
37324;DHT22;23205;49.986;18.950;2022-08-21T06:19:51;20.30;99.90
37324;DHT22;23205;49.986;18.950;2022-08-21T06:24:52;20.30;99.90
37324;DHT22;23205;49.986;18.950;2022-08-21T06:29:53;20.40;99.90
37324;DHT22;23205;49.986;18.950;2022-08-21T06:34:56;20.40;99.90
37324;DHT22;23205;49.986;18.950;2022-08-21T06:40:02;20.40;99.90
37324;DHT22;23205;49.986;18.950;2022-08-21T06:45:04;20.50;99.90
37324;DHT22;23205;49.986;18.950;2022-08-21T06:50:09;20.60;99.90
37324;DHT22;23205;49.986;18.950;2022-08-21T06:55:10;20.50;99.90
37324;DHT22;23205;49.986;18.950;2022-08-21T07:00:11;20.60;99.90
37324;DHT22;23205;49.986;18.950;2022-08-21T07:05:12;20.60;99.90
37324;DHT22;23205;49.986;18.950;2022-08-21T07:10:17;20.50;99.90
37324;DHT22;23205;49.986;18.950;2022-08-21T07:15:18;20.50;99.90
37324;DHT22;23205;49.986;18.950;2022-08-21T07:20:19;20.50;99.90
37324;DHT22;23205;49.986;18.950;2022-08-21T07:25:20;20.40;99.90
37324;DHT22;23205;49.986;18.950;2022-08-21T07:30:22;20.30;99.90
37324;DHT22;23205;49.986;18.950;2022-08-21T07:35:23;20.30;99.90
37324;DHT22;23205;49.986;18.950;2022-08-21T07:40:24;20.30;99.90
37324;DHT22;23205;49.986;18.950;2022-08-21T07:45:25;20.30;99.90
37324;DHT22;23205;49.986;18.950;2022-08-21T07:50:27;20.30;99.90
37324;DHT22;23205;49.986;18.950;2022-08-21T07:55:28;20.30;99.90
37324;DHT22;23205;49.986;18.950;2022-08-21T08:00:29;20.20;99.90
37324;DHT22;23205;49.986;18.950;2022-08-21T08:05:32;20.30;99.90
37324;DHT22;23205;49.986;18.950;2022-08-21T08:10:33;20.30;99.90
37324;DHT22;23205;49.986;18.950;2022-08-21T08:15:35;20.40;99.90
37324;DHT22;23205;49.986;18.950;2022-08-21T08:20:36;20.30;99.90
37324;DHT22;23205;49.986;18.950;2022-08-21T08:25:37;20.30;99.90
37324;DHT22;23205;49.986;18.950;2022-08-21T08:30:38;20.30;99.90
37324;DHT22;23205;49.986;18.950;2022-08-21T08:35:48;20.30;99.90
37324;DHT22;23205;49.986;18.950;2022-08-21T08:45:55;20.10;99.90
37324;DHT22;23205;49.986;18.950;2022-08-21T08:51:00;20.00;99.90
37324;DHT22;23205;49.986;18.950;2022-08-21T08:56:03;19.90;99.90
37324;DHT22;23205;49.986;18.950;2022-08-21T09:01:14;19.70;99.90
37324;DHT22;23205;49.986;18.950;2022-08-21T09:11:43;19.00;99.90
37324;DHT22;23205;49.986;18.950;2022-08-21T09:17:23;18.90;99.90
37324;DHT22;23205;49.986;18.950;2022-08-21T09:27:25;18.70;99.90
37324;DHT22;23205;49.986;18.950;2022-08-21T09:32:29;18.50;99.90
37324;DHT22;23205;49.986;18.950;2022-08-21T09:37:32;18.50;99.90
37324;DHT22;23205;49.986;18.950;2022-08-21T09:42:34;18.60;99.90
37324;DHT22;23205;49.986;18.950;2022-08-21T09:47:35;18.60;99.90
37324;DHT22;23205;49.986;18.950;2022-08-21T09:52:56;18.90;99.90
37324;DHT22;23205;49.986;18.950;2022-08-21T09:57:59;19.10;99.90
37324;DHT22;23205;49.986;18.950;2022-08-21T10:03:15;18.90;99.90
37324;DHT22;23205;49.986;18.950;2022-08-21T10:08:20;19.00;99.90
37324;DHT22;23205;49.986;18.950;2022-08-21T10:19:15;18.90;99.90
37324;DHT22;23205;49.986;18.950;2022-08-21T10:24:52;18.80;99.90
37324;DHT22;23205;49.986;18.950;2022-08-21T10:29:57;19.00;99.90
37324;DHT22;23205;49.986;18.950;2022-08-21T10:35:27;19.10;99.90
37324;DHT22;23205;49.986;18.950;2022-08-21T10:40:48;19.00;99.90
37324;DHT22;23205;49.986;18.950;2022-08-21T10:56:30;18.90;99.90
37324;DHT22;23205;49.986;18.950;2022-08-21T11:06:52;18.80;99.90
37324;DHT22;23205;49.986;18.950;2022-08-21T11:12:05;18.90;99.90
37324;DHT22;23205;49.986;18.950;2022-08-21T11:17:10;19.00;99.90
37324;DHT22;23205;49.986;18.950;2022-08-21T11:22:18;18.90;99.90
37324;DHT22;23205;49.986;18.950;2022-08-21T11:32:53;18.80;99.90
37324;DHT22;23205;49.986;18.950;2022-08-21T11:53:43;18.80;99.90
37324;DHT22;23205;49.986;18.950;2022-08-21T11:58:59;18.80;99.90
37324;DHT22;23205;49.986;18.950;2022-08-21T12:04:15;19.10;99.90
37324;DHT22;23205;49.986;18.950;2022-08-21T12:19:39;19.20;99.90
37324;DHT22;23205;49.986;18.950;2022-08-21T12:24:48;18.90;99.90
37324;DHT22;23205;49.986;18.950;2022-08-21T12:30:01;18.90;99.90
37324;DHT22;23205;49.986;18.950;2022-08-21T12:35:20;19.10;99.90
37324;DHT22;23205;49.986;18.950;2022-08-21T12:40:33;18.70;99.90
37324;DHT22;23205;49.986;18.950;2022-08-21T12:45:45;18.50;99.90
37324;DHT22;23205;49.986;18.950;2022-08-21T12:51:24;18.30;99.90
37324;DHT22;23205;49.986;18.950;2022-08-21T12:56:20;18.50;99.90
37324;DHT22;23205;49.986;18.950;2022-08-21T13:01:31;18.50;99.90
37324;DHT22;23205;49.986;18.950;2022-08-21T13:06:40;18.10;99.90
37324;DHT22;23205;49.986;18.950;2022-08-21T13:11:45;18.30;99.90
37324;DHT22;23205;49.986;18.950;2022-08-21T13:16:47;18.40;99.90
37324;DHT22;23205;49.986;18.950;2022-08-21T13:21:48;18.50;99.90
37324;DHT22;23205;49.986;18.950;2022-08-21T13:26:50;18.50;99.90
37324;DHT22;23205;49.986;18.950;2022-08-21T13:31:58;18.60;99.90
37324;DHT22;23205;49.986;18.950;2022-08-21T13:37:04;18.30;99.90
37324;DHT22;23205;49.986;18.950;2022-08-21T13:42:10;18.30;99.90
37324;DHT22;23205;49.986;18.950;2022-08-21T13:47:13;18.10;99.90
37324;DHT22;23205;49.986;18.950;2022-08-21T13:52:17;18.20;99.90
37324;DHT22;23205;49.986;18.950;2022-08-21T13:57:26;18.30;99.90
37324;DHT22;23205;49.986;18.950;2022-08-21T14:02:27;18.10;99.90
37324;DHT22;23205;49.986;18.950;2022-08-21T14:07:37;18.20;99.90
37324;DHT22;23205;49.986;18.950;2022-08-21T14:12:48;17.80;99.90
37324;DHT22;23205;49.986;18.950;2022-08-21T14:17:50;17.70;99.90
37324;DHT22;23205;49.986;18.950;2022-08-21T14:22:51;17.80;99.90
37324;DHT22;23205;49.986;18.950;2022-08-21T14:33:20;17.30;99.90
37324;DHT22;23205;49.986;18.950;2022-08-21T14:38:26;17.00;99.90
37324;DHT22;23205;49.986;18.950;2022-08-21T14:43:28;17.20;99.90
37324;DHT22;23205;49.986;18.950;2022-08-21T14:48:29;17.10;99.90
37324;DHT22;23205;49.986;18.950;2022-08-21T14:53:30;17.00;99.90
37324;DHT22;23205;49.986;18.950;2022-08-21T14:58:32;17.10;99.90
37324;DHT22;23205;49.986;18.950;2022-08-21T15:03:34;17.00;99.90
37324;DHT22;23205;49.986;18.950;2022-08-21T15:08:36;17.30;99.90
37324;DHT22;23205;49.986;18.950;2022-08-21T15:13:40;17.20;99.90
37324;DHT22;23205;49.986;18.950;2022-08-21T15:18:41;17.10;99.90
37324;DHT22;23205;49.986;18.950;2022-08-21T15:23:42;17.20;99.90
37324;DHT22;23205;49.986;18.950;2022-08-21T15:28:43;17.10;99.90
37324;DHT22;23205;49.986;18.950;2022-08-21T15:33:46;17.10;99.90
37324;DHT22;23205;49.986;18.950;2022-08-21T15:38:50;17.10;99.90
37324;DHT22;23205;49.986;18.950;2022-08-21T15:43:51;17.30;99.90
37324;DHT22;23205;49.986;18.950;2022-08-21T15:48:53;17.20;99.90
37324;DHT22;23205;49.986;18.950;2022-08-21T15:53:54;16.90;99.90
37324;DHT22;23205;49.986;18.950;2022-08-21T15:59:01;16.90;99.90
37324;DHT22;23205;49.986;18.950;2022-08-21T16:04:04;16.90;99.90
37324;DHT22;23205;49.986;18.950;2022-08-21T16:09:06;16.80;99.90
37324;DHT22;23205;49.986;18.950;2022-08-21T16:14:07;16.60;99.90
37324;DHT22;23205;49.986;18.950;2022-08-21T16:19:08;16.80;99.90
37324;DHT22;23205;49.986;18.950;2022-08-21T16:24:09;16.70;99.90
37324;DHT22;23205;49.986;18.950;2022-08-21T16:29:11;16.80;99.90
37324;DHT22;23205;49.986;18.950;2022-08-21T16:34:15;16.90;99.90
37324;DHT22;23205;49.986;18.950;2022-08-21T16:39:17;16.80;99.90
37324;DHT22;23205;49.986;18.950;2022-08-21T16:44:19;16.80;99.90
37324;DHT22;23205;49.986;18.950;2022-08-21T16:49:21;16.70;99.90
37324;DHT22;23205;49.986;18.950;2022-08-21T16:54:23;16.80;99.90
37324;DHT22;23205;49.986;18.950;2022-08-21T16:59:24;17.00;99.90
37324;DHT22;23205;49.986;18.950;2022-08-21T17:04:25;16.80;99.90
37324;DHT22;23205;49.986;18.950;2022-08-21T17:09:27;16.70;99.90
37324;DHT22;23205;49.986;18.950;2022-08-21T17:14:28;16.70;99.90
37324;DHT22;23205;49.986;18.950;2022-08-21T17:19:29;16.70;99.90
37324;DHT22;23205;49.986;18.950;2022-08-21T17:24:30;16.60;99.90
37324;DHT22;23205;49.986;18.950;2022-08-21T17:29:36;16.60;99.90
37324;DHT22;23205;49.986;18.950;2022-08-21T17:34:38;16.70;99.90
37324;DHT22;23205;49.986;18.950;2022-08-21T17:39:39;16.70;99.90
37324;DHT22;23205;49.986;18.950;2022-08-21T17:44:42;16.40;99.90
37324;DHT22;23205;49.986;18.950;2022-08-21T17:49:44;16.30;99.90
37324;DHT22;23205;49.986;18.950;2022-08-21T17:54:45;16.40;99.90
37324;DHT22;23205;49.986;18.950;2022-08-21T17:59:46;16.50;99.90
37324;DHT22;23205;49.986;18.950;2022-08-21T18:04:48;16.40;99.90
37324;DHT22;23205;49.986;18.950;2022-08-21T18:09:53;16.40;99.90
37324;DHT22;23205;49.986;18.950;2022-08-21T18:14:54;16.20;99.90
37324;DHT22;23205;49.986;18.950;2022-08-21T18:19:55;16.20;99.90
37324;DHT22;23205;49.986;18.950;2022-08-21T18:24:59;16.20;99.90
37324;DHT22;23205;49.986;18.950;2022-08-21T18:30:03;16.20;99.90
37324;DHT22;23205;49.986;18.950;2022-08-21T18:35:06;16.20;99.90
37324;DHT22;23205;49.986;18.950;2022-08-21T18:40:08;16.20;99.90
37324;DHT22;23205;49.986;18.950;2022-08-21T18:45:20;16.20;99.90
37324;DHT22;23205;49.986;18.950;2022-08-21T18:50:24;16.10;99.90
37324;DHT22;23205;49.986;18.950;2022-08-21T18:55:29;16.20;99.90
37324;DHT22;23205;49.986;18.950;2022-08-21T19:00:35;16.10;99.90
37324;DHT22;23205;49.986;18.950;2022-08-21T19:05:37;16.10;99.90
37324;DHT22;23205;49.986;18.950;2022-08-21T19:10:45;16.20;99.90
37324;DHT22;23205;49.986;18.950;2022-08-21T19:15:48;16.10;99.90
37324;DHT22;23205;49.986;18.950;2022-08-21T19:20:52;16.20;99.90
37324;DHT22;23205;49.986;18.950;2022-08-21T19:25:54;16.10;99.90
37324;DHT22;23205;49.986;18.950;2022-08-21T19:31:18;16.10;99.90
37324;DHT22;23205;49.986;18.950;2022-08-21T19:36:20;16.10;99.90
37324;DHT22;23205;49.986;18.950;2022-08-21T19:41:24;16.10;99.90
37324;DHT22;23205;49.986;18.950;2022-08-21T19:46:29;16.10;99.90
37324;DHT22;23205;49.986;18.950;2022-08-21T19:51:32;16.00;99.90
37324;DHT22;23205;49.986;18.950;2022-08-21T19:56:33;16.00;99.90
37324;DHT22;23205;49.986;18.950;2022-08-21T20:01:33;16.00;99.90
37324;DHT22;23205;49.986;18.950;2022-08-21T20:06:35;15.90;99.90
37324;DHT22;23205;49.986;18.950;2022-08-21T20:11:45;16.10;99.90
37324;DHT22;23205;49.986;18.950;2022-08-21T20:16:47;16.10;99.90
37324;DHT22;23205;49.986;18.950;2022-08-21T20:21:49;16.10;99.90
37324;DHT22;23205;49.986;18.950;2022-08-21T20:26:50;16.00;99.90
37324;DHT22;23205;49.986;18.950;2022-08-21T20:31:51;16.00;99.90
37324;DHT22;23205;49.986;18.950;2022-08-21T20:36:52;16.00;99.90
37324;DHT22;23205;49.986;18.950;2022-08-21T20:41:53;16.10;99.90
37324;DHT22;23205;49.986;18.950;2022-08-21T20:46:54;16.10;99.90
37324;DHT22;23205;49.986;18.950;2022-08-21T20:51:57;16.10;99.90
37324;DHT22;23205;49.986;18.950;2022-08-21T20:57:18;16.10;99.90
37324;DHT22;23205;49.986;18.950;2022-08-21T21:07:54;16.10;99.90
37324;DHT22;23205;49.986;18.950;2022-08-21T21:13:09;16.00;99.90
37324;DHT22;23205;49.986;18.950;2022-08-21T21:23:50;15.80;99.90
37324;DHT22;23205;49.986;18.950;2022-08-21T21:29:07;15.90;99.90
37324;DHT22;23205;49.986;18.950;2022-08-21T21:34:11;15.90;99.90
37324;DHT22;23205;49.986;18.950;2022-08-21T21:49:56;16.00;99.90
37324;DHT22;23205;49.986;18.950;2022-08-21T22:00:23;16.10;99.90
37324;DHT22;23205;49.986;18.950;2022-08-21T22:16:29;16.20;99.90
37324;DHT22;23205;49.986;18.950;2022-08-21T22:21:34;16.30;99.90
37324;DHT22;23205;49.986;18.950;2022-08-21T22:26:41;16.30;99.90
37324;DHT22;23205;49.986;18.950;2022-08-21T22:31:43;16.30;99.90
37324;DHT22;23205;49.986;18.950;2022-08-21T22:36:55;16.30;99.90
37324;DHT22;23205;49.986;18.950;2022-08-21T22:42:07;16.40;99.90
37324;DHT22;23205;49.986;18.950;2022-08-21T22:47:09;16.40;99.90
37324;DHT22;23205;49.986;18.950;2022-08-21T22:52:23;16.40;99.90
37324;DHT22;23205;49.986;18.950;2022-08-21T22:57:32;16.40;99.90
37324;DHT22;23205;49.986;18.950;2022-08-21T23:02:39;16.40;99.90
37324;DHT22;23205;49.986;18.950;2022-08-21T23:07:43;16.40;99.90
37324;DHT22;23205;49.986;18.950;2022-08-21T23:12:50;16.40;99.90
37324;DHT22;23205;49.986;18.950;2022-08-21T23:34:21;16.40;99.90
37324;DHT22;23205;49.986;18.950;2022-08-21T23:50:23;16.50;99.90
